Portada
METAR-TAF:

METAR-TAF

Aeroports :

Palembang, Indonèsia

latitud: 02-54S, longitud: 104-42E, altitud: 10 m

METAR: manca

Hora: 07:37 (00:37 UTC)

Pronòstic

L'informe es va fer fa 1 hora i 37 minuts, a les 23:00 UTC
Pronòstic vàlid del 04 a les 00 UTC al 04 a les 24 UTC
Vent 7 kt del Nord
Visibilitat 10 km o més
Núvols disperses a una alçada de 1000 ft
Temporalment
l' 04 a les 05 UTC al 04 a les 09 UTC
Visibilitat: 4000 m
Escasses núvols a una alçada de 1000 ft, Cumulonimbus.
Cel ennuvolat a una alçada de 1000 ft
pluja
Temporalment
l' 04 a les 20 UTC al 04 a les 24 UTC
Visibilitat: 3000 m
Cel ennuvolat a una alçada de 1000 ft
calitja

TAF: WIPP 032300Z 0400/0424 35007KT 9999 SCT010 TEMPO 0405/0409 4000 -RA FEW010CB BKN010 TEMPO 0420/0424 3000 HZ BKN010

Observacions i pronòstics meteorològics de més de 4000 aeroports (METAR i TAF).

Les estacions disponibles són els punts grocs i vermells al mapa.

Posi el ratolí al punt desitjat per veure el nom de l'estació.

Feu clic per veure les observacions i els pronòstics meteorològics.

Per canviar el mapa: feu clic els botons verds amb una creu de color negre per apropar; al botó verd amb un guió per allunyar la imatge; o en les fletxes verdes per a mapes adjacents.


METAR-TAF: